sensor_id;sensor_type;location;lat;lon;timestamp;temperature;humidity
31675;DHT22;18276;45.520;11.018;2023-07-08T00:00:10;21.60;76.90
31675;DHT22;18276;45.520;11.018;2023-07-08T00:02:37;21.60;77.00
31675;DHT22;18276;45.520;11.018;2023-07-08T00:05:04;21.60;77.00
31675;DHT22;18276;45.520;11.018;2023-07-08T00:07:31;21.60;77.20
31675;DHT22;18276;45.520;11.018;2023-07-08T00:09:58;21.60;77.30
31675;DHT22;18276;45.520;11.018;2023-07-08T00:12:25;21.50;77.30
31675;DHT22;18276;45.520;11.018;2023-07-08T00:14:52;21.50;77.30
31675;DHT22;18276;45.520;11.018;2023-07-08T00:17:19;21.50;77.40
31675;DHT22;18276;45.520;11.018;2023-07-08T00:19:46;21.50;77.40
31675;DHT22;18276;45.520;11.018;2023-07-08T00:22:14;21.50;77.50
31675;DHT22;18276;45.520;11.018;2023-07-08T00:24:41;21.50;77.60
31675;DHT22;18276;45.520;11.018;2023-07-08T00:27:10;21.50;77.60
31675;DHT22;18276;45.520;11.018;2023-07-08T00:29:37;21.40;77.60
31675;DHT22;18276;45.520;11.018;2023-07-08T00:32:08;21.50;77.70
31675;DHT22;18276;45.520;11.018;2023-07-08T00:34:36;21.40;77.80
31675;DHT22;18276;45.520;11.018;2023-07-08T00:37:03;21.40;77.80
31675;DHT22;18276;45.520;11.018;2023-07-08T00:39:32;21.40;77.90
31675;DHT22;18276;45.520;11.018;2023-07-08T00:42:00;21.40;77.90
31675;DHT22;18276;45.520;11.018;2023-07-08T00:44:28;21.40;78.20
31675;DHT22;18276;45.520;11.018;2023-07-08T00:47:07;21.30;78.00
31675;DHT22;18276;45.520;11.018;2023-07-08T00:49:36;21.40;78.30
31675;DHT22;18276;45.520;11.018;2023-07-08T00:52:26;21.30;78.30
31675;DHT22;18276;45.520;11.018;2023-07-08T00:54:54;21.30;78.40
31675;DHT22;18276;45.520;11.018;2023-07-08T00:57:21;21.30;78.40
31675;DHT22;18276;45.520;11.018;2023-07-08T00:59:51;21.30;78.50
31675;DHT22;18276;45.520;11.018;2023-07-08T01:02:20;21.30;78.60
31675;DHT22;18276;45.520;11.018;2023-07-08T01:04:58;21.20;78.70
31675;DHT22;18276;45.520;11.018;2023-07-08T01:07:26;21.20;78.90
31675;DHT22;18276;45.520;11.018;2023-07-08T01:10:00;21.20;79.00
31675;DHT22;18276;45.520;11.018;2023-07-08T01:12:30;21.20;79.30
31675;DHT22;18276;45.520;11.018;2023-07-08T01:14:58;21.20;79.30
31675;DHT22;18276;45.520;11.018;2023-07-08T01:17:27;21.10;79.30
31675;DHT22;18276;45.520;11.018;2023-07-08T01:20:01;21.10;79.40
31675;DHT22;18276;45.520;11.018;2023-07-08T01:22:36;21.00;79.60
31675;DHT22;18276;45.520;11.018;2023-07-08T01:25:03;21.10;79.60
31675;DHT22;18276;45.520;11.018;2023-07-08T01:27:35;21.10;79.60
31675;DHT22;18276;45.520;11.018;2023-07-08T01:30:04;21.00;79.70
31675;DHT22;18276;45.520;11.018;2023-07-08T01:32:34;21.00;79.80
31675;DHT22;18276;45.520;11.018;2023-07-08T01:35:03;21.00;79.90
31675;DHT22;18276;45.520;11.018;2023-07-08T01:39:56;21.00;80.00
31675;DHT22;18276;45.520;11.018;2023-07-08T01:42:23;20.90;80.00
31675;DHT22;18276;45.520;11.018;2023-07-08T01:44:50;21.00;80.10
31675;DHT22;18276;45.520;11.018;2023-07-08T01:47:18;20.90;80.20
31675;DHT22;18276;45.520;11.018;2023-07-08T01:49:46;20.90;80.30
31675;DHT22;18276;45.520;11.018;2023-07-08T01:52:14;20.90;80.30
31675;DHT22;18276;45.520;11.018;2023-07-08T01:54:42;20.90;80.60
31675;DHT22;18276;45.520;11.018;2023-07-08T01:57:09;20.90;80.50
31675;DHT22;18276;45.520;11.018;2023-07-08T01:59:36;20.80;80.60
31675;DHT22;18276;45.520;11.018;2023-07-08T02:02:03;20.80;80.60
31675;DHT22;18276;45.520;11.018;2023-07-08T02:04:30;20.80;80.70
31675;DHT22;18276;45.520;11.018;2023-07-08T02:06:58;20.80;80.80
31675;DHT22;18276;45.520;11.018;2023-07-08T02:09:26;20.80;80.80
31675;DHT22;18276;45.520;11.018;2023-07-08T02:11:53;20.80;81.00
31675;DHT22;18276;45.520;11.018;2023-07-08T02:14:20;20.80;81.10
31675;DHT22;18276;45.520;11.018;2023-07-08T02:16:47;20.80;81.20
31675;DHT22;18276;45.520;11.018;2023-07-08T02:19:14;20.70;81.40
31675;DHT22;18276;45.520;11.018;2023-07-08T02:21:41;20.70;81.40
31675;DHT22;18276;45.520;11.018;2023-07-08T02:24:09;20.70;82.40
31675;DHT22;18276;45.520;11.018;2023-07-08T02:26:36;20.70;81.70
31675;DHT22;18276;45.520;11.018;2023-07-08T02:29:03;20.70;81.70
31675;DHT22;18276;45.520;11.018;2023-07-08T02:31:30;20.70;81.80
31675;DHT22;18276;45.520;11.018;2023-07-08T02:33:57;20.70;81.80
31675;DHT22;18276;45.520;11.018;2023-07-08T02:36:24;20.70;81.80
31675;DHT22;18276;45.520;11.018;2023-07-08T02:38:51;20.70;81.90
31675;DHT22;18276;45.520;11.018;2023-07-08T02:41:18;20.70;81.90
31675;DHT22;18276;45.520;11.018;2023-07-08T02:43:45;20.70;81.80
31675;DHT22;18276;45.520;11.018;2023-07-08T02:46:11;20.70;81.90
31675;DHT22;18276;45.520;11.018;2023-07-08T02:48:38;20.70;81.90
31675;DHT22;18276;45.520;11.018;2023-07-08T02:51:05;20.70;82.00
31675;DHT22;18276;45.520;11.018;2023-07-08T02:53:32;20.70;82.10
31675;DHT22;18276;45.520;11.018;2023-07-08T02:55:59;20.60;82.10
31675;DHT22;18276;45.520;11.018;2023-07-08T02:58:26;20.60;82.20
31675;DHT22;18276;45.520;11.018;2023-07-08T03:00:54;20.60;82.20
31675;DHT22;18276;45.520;11.018;2023-07-08T03:03:21;20.60;82.10
31675;DHT22;18276;45.520;11.018;2023-07-08T03:05:58;20.60;82.10
31675;DHT22;18276;45.520;11.018;2023-07-08T03:08:26;20.60;82.00
31675;DHT22;18276;45.520;11.018;2023-07-08T03:10:55;20.60;82.00
31675;DHT22;18276;45.520;11.018;2023-07-08T03:13:22;20.60;82.00
31675;DHT22;18276;45.520;11.018;2023-07-08T03:15:50;20.60;82.00
31675;DHT22;18276;45.520;11.018;2023-07-08T03:18:17;20.60;82.00
31675;DHT22;18276;45.520;11.018;2023-07-08T03:20:44;20.60;81.90
31675;DHT22;18276;45.520;11.018;2023-07-08T03:23:14;20.50;81.90
31675;DHT22;18276;45.520;11.018;2023-07-08T03:25:42;20.50;81.90
31675;DHT22;18276;45.520;11.018;2023-07-08T03:28:11;20.50;81.80
31675;DHT22;18276;45.520;11.018;2023-07-08T03:30:43;20.50;81.70
31675;DHT22;18276;45.520;11.018;2023-07-08T03:33:11;20.50;81.70
31675;DHT22;18276;45.520;11.018;2023-07-08T03:35:40;20.50;81.70
31675;DHT22;18276;45.520;11.018;2023-07-08T03:38:07;20.50;81.70
31675;DHT22;18276;45.520;11.018;2023-07-08T03:40:34;20.50;81.70
31675;DHT22;18276;45.520;11.018;2023-07-08T03:43:00;20.50;81.70
31675;DHT22;18276;45.520;11.018;2023-07-08T03:45:29;20.50;81.70
31675;DHT22;18276;45.520;11.018;2023-07-08T03:47:57;20.50;81.60
31675;DHT22;18276;45.520;11.018;2023-07-08T03:50:25;20.50;81.40
31675;DHT22;18276;45.520;11.018;2023-07-08T03:52:53;20.50;81.30
31675;DHT22;18276;45.520;11.018;2023-07-08T03:55:23;20.60;81.30
31675;DHT22;18276;45.520;11.018;2023-07-08T03:57:51;20.60;81.10
31675;DHT22;18276;45.520;11.018;2023-07-08T04:00:18;20.60;81.00
31675;DHT22;18276;45.520;11.018;2023-07-08T04:02:45;20.60;80.80
31675;DHT22;18276;45.520;11.018;2023-07-08T04:05:19;20.60;80.60
31675;DHT22;18276;45.520;11.018;2023-07-08T04:07:47;20.70;80.40
31675;DHT22;18276;45.520;11.018;2023-07-08T04:10:14;20.70;80.20
31675;DHT22;18276;45.520;11.018;2023-07-08T04:12:41;20.80;80.00
31675;DHT22;18276;45.520;11.018;2023-07-08T04:15:08;20.80;79.60
31675;DHT22;18276;45.520;11.018;2023-07-08T04:17:37;20.90;79.30
31675;DHT22;18276;45.520;11.018;2023-07-08T04:20:08;20.90;79.00
31675;DHT22;18276;45.520;11.018;2023-07-08T04:22:36;21.00;78.60
31675;DHT22;18276;45.520;11.018;2023-07-08T04:25:04;21.00;78.20
31675;DHT22;18276;45.520;11.018;2023-07-08T04:27:31;21.00;77.80
31675;DHT22;18276;45.520;11.018;2023-07-08T04:29:58;21.00;77.60
31675;DHT22;18276;45.520;11.018;2023-07-08T04:32:25;21.00;77.30
31675;DHT22;18276;45.520;11.018;2023-07-08T04:34:52;21.10;77.10
31675;DHT22;18276;45.520;11.018;2023-07-08T04:37:19;21.10;76.80
31675;DHT22;18276;45.520;11.018;2023-07-08T04:39:46;21.10;76.60
31675;DHT22;18276;45.520;11.018;2023-07-08T04:42:14;21.10;76.10
31675;DHT22;18276;45.520;11.018;2023-07-08T04:44:42;21.20;75.80
31675;DHT22;18276;45.520;11.018;2023-07-08T04:47:09;21.30;75.60
31675;DHT22;18276;45.520;11.018;2023-07-08T04:49:38;21.40;75.10
31675;DHT22;18276;45.520;11.018;2023-07-08T04:52:10;21.50;74.70
31675;DHT22;18276;45.520;11.018;2023-07-08T04:54:37;21.60;74.30
31675;DHT22;18276;45.520;11.018;2023-07-08T04:57:04;21.70;73.80
31675;DHT22;18276;45.520;11.018;2023-07-08T04:59:31;21.80;73.40
31675;DHT22;18276;45.520;11.018;2023-07-08T05:02:01;21.90;72.80
31675;DHT22;18276;45.520;11.018;2023-07-08T05:04:28;22.10;73.20
31675;DHT22;18276;45.520;11.018;2023-07-08T05:06:55;22.10;72.10
31675;DHT22;18276;45.520;11.018;2023-07-08T05:09:22;22.30;71.60
31675;DHT22;18276;45.520;11.018;2023-07-08T05:11:52;22.40;71.30
31675;DHT22;18276;45.520;11.018;2023-07-08T05:14:19;22.60;70.90
31675;DHT22;18276;45.520;11.018;2023-07-08T05:16:46;22.80;70.40
31675;DHT22;18276;45.520;11.018;2023-07-08T05:19:14;23.00;69.70
31675;DHT22;18276;45.520;11.018;2023-07-08T05:21:41;23.20;69.00
31675;DHT22;18276;45.520;11.018;2023-07-08T05:24:09;23.50;68.40
31675;DHT22;18276;45.520;11.018;2023-07-08T05:26:36;23.70;67.30
31675;DHT22;18276;45.520;11.018;2023-07-08T05:29:03;23.90;66.60
31675;DHT22;18276;45.520;11.018;2023-07-08T05:31:32;24.30;65.60
31675;DHT22;18276;45.520;11.018;2023-07-08T05:34:12;24.90;64.20
31675;DHT22;18276;45.520;11.018;2023-07-08T05:36:39;25.90;63.10
31675;DHT22;18276;45.520;11.018;2023-07-08T05:39:06;26.70;61.50
31675;DHT22;18276;45.520;11.018;2023-07-08T05:41:34;27.40;59.30
31675;DHT22;18276;45.520;11.018;2023-07-08T05:44:01;28.00;58.40
31675;DHT22;18276;45.520;11.018;2023-07-08T05:46:28;28.50;57.50
31675;DHT22;18276;45.520;11.018;2023-07-08T05:48:55;28.90;55.80
31675;DHT22;18276;45.520;11.018;2023-07-08T05:51:26;29.10;55.00
31675;DHT22;18276;45.520;11.018;2023-07-08T05:53:53;29.40;54.10
31675;DHT22;18276;45.520;11.018;2023-07-08T05:56:19;29.80;53.30
31675;DHT22;18276;45.520;11.018;2023-07-08T05:58:46;30.30;52.60
31675;DHT22;18276;45.520;11.018;2023-07-08T06:01:13;30.70;52.20
31675;DHT22;18276;45.520;11.018;2023-07-08T06:03:40;31.00;51.90
31675;DHT22;18276;45.520;11.018;2023-07-08T06:06:07;31.30;50.70
31675;DHT22;18276;45.520;11.018;2023-07-08T06:08:34;31.60;49.80
31675;DHT22;18276;45.520;11.018;2023-07-08T06:11:02;31.70;49.20
31675;DHT22;18276;45.520;11.018;2023-07-08T06:13:29;31.40;49.00
31675;DHT22;18276;45.520;11.018;2023-07-08T06:15:56;30.60;49.50
31675;DHT22;18276;45.520;11.018;2023-07-08T06:18:23;29.80;50.50
31675;DHT22;18276;45.520;11.018;2023-07-08T06:20:51;29.20;51.30
31675;DHT22;18276;45.520;11.018;2023-07-08T06:23:18;29.30;52.00
31675;DHT22;18276;45.520;11.018;2023-07-08T06:25:45;30.10;51.70
31675;DHT22;18276;45.520;11.018;2023-07-08T06:28:12;30.70;50.40
31675;DHT22;18276;45.520;11.018;2023-07-08T06:30:38;30.50;49.30
31675;DHT22;18276;45.520;11.018;2023-07-08T06:33:05;30.00;49.00
31675;DHT22;18276;45.520;11.018;2023-07-08T06:35:32;29.70;49.80
31675;DHT22;18276;45.520;11.018;2023-07-08T06:37:59;29.70;50.50
31675;DHT22;18276;45.520;11.018;2023-07-08T06:40:26;29.70;50.50
31675;DHT22;18276;45.520;11.018;2023-07-08T06:42:53;29.90;50.70
31675;DHT22;18276;45.520;11.018;2023-07-08T06:45:32;30.00;50.50
31675;DHT22;18276;45.520;11.018;2023-07-08T06:48:00;29.70;50.60
31675;DHT22;18276;45.520;11.018;2023-07-08T06:50:27;29.40;51.00
31675;DHT22;18276;45.520;11.018;2023-07-08T06:52:54;29.20;51.40
31675;DHT22;18276;45.520;11.018;2023-07-08T06:55:21;29.10;51.70
31675;DHT22;18276;45.520;11.018;2023-07-08T06:57:48;29.10;51.80
31675;DHT22;18276;45.520;11.018;2023-07-08T07:00:15;29.40;52.80
31675;DHT22;18276;45.520;11.018;2023-07-08T07:02:42;29.80;51.90
31675;DHT22;18276;45.520;11.018;2023-07-08T07:05:10;30.50;51.90
31675;DHT22;18276;45.520;11.018;2023-07-08T07:07:37;31.80;51.00
31675;DHT22;18276;45.520;11.018;2023-07-08T07:10:04;32.70;49.80
31675;DHT22;18276;45.520;11.018;2023-07-08T07:12:32;33.00;48.70
31675;DHT22;18276;45.520;11.018;2023-07-08T07:14:59;33.50;47.90
31675;DHT22;18276;45.520;11.018;2023-07-08T07:17:26;33.30;47.70
31675;DHT22;18276;45.520;11.018;2023-07-08T07:19:54;33.20;48.90
31675;DHT22;18276;45.520;11.018;2023-07-08T07:22:21;33.80;47.70
31675;DHT22;18276;45.520;11.018;2023-07-08T07:24:48;34.70;47.20
31675;DHT22;18276;45.520;11.018;2023-07-08T07:27:15;35.60;45.20
31675;DHT22;18276;45.520;11.018;2023-07-08T07:29:43;36.10;43.80
31675;DHT22;18276;45.520;11.018;2023-07-08T07:32:11;36.40;42.70
31675;DHT22;18276;45.520;11.018;2023-07-08T07:34:38;36.70;40.30
31675;DHT22;18276;45.520;11.018;2023-07-08T07:37:06;36.80;38.90
31675;DHT22;18276;45.520;11.018;2023-07-08T07:39:33;36.70;37.90
31675;DHT22;18276;45.520;11.018;2023-07-08T07:42:00;36.50;38.30
31675;DHT22;18276;45.520;11.018;2023-07-08T07:44:27;36.50;38.00
31675;DHT22;18276;45.520;11.018;2023-07-08T07:46:54;35.90;38.40
31675;DHT22;18276;45.520;11.018;2023-07-08T07:49:21;35.30;38.20
31675;DHT22;18276;45.520;11.018;2023-07-08T07:51:48;35.30;38.40
31675;DHT22;18276;45.520;11.018;2023-07-08T07:54:15;35.80;37.90
31675;DHT22;18276;45.520;11.018;2023-07-08T07:56:42;36.60;36.70
31675;DHT22;18276;45.520;11.018;2023-07-08T07:59:10;37.40;34.30
31675;DHT22;18276;45.520;11.018;2023-07-08T08:01:37;37.60;33.50
31675;DHT22;18276;45.520;11.018;2023-07-08T08:04:04;37.40;33.80
31675;DHT22;18276;45.520;11.018;2023-07-08T08:06:31;37.30;34.00
31675;DHT22;18276;45.520;11.018;2023-07-08T08:08:58;37.30;32.60
31675;DHT22;18276;45.520;11.018;2023-07-08T08:11:25;37.40;33.20
31675;DHT22;18276;45.520;11.018;2023-07-08T08:13:52;37.80;32.60
31675;DHT22;18276;45.520;11.018;2023-07-08T08:16:20;38.20;32.60
31675;DHT22;18276;45.520;11.018;2023-07-08T08:18:47;38.40;32.20
31675;DHT22;18276;45.520;11.018;2023-07-08T08:21:14;38.50;32.60
31675;DHT22;18276;45.520;11.018;2023-07-08T08:23:41;38.70;32.10
31675;DHT22;18276;45.520;11.018;2023-07-08T08:26:08;38.60;32.50
31675;DHT22;18276;45.520;11.018;2023-07-08T08:28:35;38.90;32.80
31675;DHT22;18276;45.520;11.018;2023-07-08T08:31:02;38.70;31.80
31675;DHT22;18276;45.520;11.018;2023-07-08T08:33:29;38.50;31.70
31675;DHT22;18276;45.520;11.018;2023-07-08T08:35:56;38.50;32.20
31675;DHT22;18276;45.520;11.018;2023-07-08T08:38:23;38.40;32.20
31675;DHT22;18276;45.520;11.018;2023-07-08T08:40:49;38.30;32.30
31675;DHT22;18276;45.520;11.018;2023-07-08T08:43:21;38.50;32.00
31675;DHT22;18276;45.520;11.018;2023-07-08T08:48:25;38.90;32.50
31675;DHT22;18276;45.520;11.018;2023-07-08T08:50:57;39.50;31.70
31675;DHT22;18276;45.520;11.018;2023-07-08T08:53:26;39.60;31.10
31675;DHT22;18276;45.520;11.018;2023-07-08T08:55:59;39.60;31.20
31675;DHT22;18276;45.520;11.018;2023-07-08T08:58:44;39.60;31.50
31675;DHT22;18276;45.520;11.018;2023-07-08T09:01:12;39.70;31.00
31675;DHT22;18276;45.520;11.018;2023-07-08T09:03:42;39.60;30.70
31675;DHT22;18276;45.520;11.018;2023-07-08T09:06:11;39.80;30.90
31675;DHT22;18276;45.520;11.018;2023-07-08T09:08:38;39.90;30.70
31675;DHT22;18276;45.520;11.018;2023-07-08T09:11:18;40.10;30.70
31675;DHT22;18276;45.520;11.018;2023-07-08T09:13:46;40.20;30.40
31675;DHT22;18276;45.520;11.018;2023-07-08T09:16:15;40.20;30.00
31675;DHT22;18276;45.520;11.018;2023-07-08T09:21:20;40.40;30.00
31675;DHT22;18276;45.520;11.018;2023-07-08T09:23:47;40.40;30.20
31675;DHT22;18276;45.520;11.018;2023-07-08T09:26:18;40.40;29.80
31675;DHT22;18276;45.520;11.018;2023-07-08T09:28:46;40.10;29.20
31675;DHT22;18276;45.520;11.018;2023-07-08T09:31:20;39.80;29.50
31675;DHT22;18276;45.520;11.018;2023-07-08T09:33:50;39.70;30.00
31675;DHT22;18276;45.520;11.018;2023-07-08T09:36:18;39.40;30.20
31675;DHT22;18276;45.520;11.018;2023-07-08T09:38:48;39.10;30.00
31675;DHT22;18276;45.520;11.018;2023-07-08T09:41:32;39.10;30.70
31675;DHT22;18276;45.520;11.018;2023-07-08T09:44:16;39.10;30.00
31675;DHT22;18276;45.520;11.018;2023-07-08T09:46:44;39.00;30.50
31675;DHT22;18276;45.520;11.018;2023-07-08T09:51:41;38.90;30.60
31675;DHT22;18276;45.520;11.018;2023-07-08T09:54:08;38.90;30.70
31675;DHT22;18276;45.520;11.018;2023-07-08T09:56:35;39.10;30.80
31675;DHT22;18276;45.520;11.018;2023-07-08T09:59:02;39.10;30.10
31675;DHT22;18276;45.520;11.018;2023-07-08T10:01:29;39.20;30.00
31675;DHT22;18276;45.520;11.018;2023-07-08T10:03:59;39.20;29.20
31675;DHT22;18276;45.520;11.018;2023-07-08T10:06:28;39.30;28.90
31675;DHT22;18276;45.520;11.018;2023-07-08T10:09:00;39.10;29.10
31675;DHT22;18276;45.520;11.018;2023-07-08T10:11:33;39.20;29.50
31675;DHT22;18276;45.520;11.018;2023-07-08T10:14:24;39.50;30.00
31675;DHT22;18276;45.520;11.018;2023-07-08T10:16:52;40.00;30.00
31675;DHT22;18276;45.520;11.018;2023-07-08T10:19:19;40.70;30.00
31675;DHT22;18276;45.520;11.018;2023-07-08T10:26:47;42.00;27.70
31675;DHT22;18276;45.520;11.018;2023-07-08T10:29:52;42.50;27.30
31675;DHT22;18276;45.520;11.018;2023-07-08T10:35:00;42.20;25.10
31675;DHT22;18276;45.520;11.018;2023-07-08T10:56:54;40.90;28.10
31675;DHT22;18276;45.520;11.018;2023-07-08T10:59:40;41.10;27.20
31675;DHT22;18276;45.520;11.018;2023-07-08T11:02:23;40.70;27.00
31675;DHT22;18276;45.520;11.018;2023-07-08T11:07:42;40.00;27.80
31675;DHT22;18276;45.520;11.018;2023-07-08T11:15:24;39.60;28.40
31675;DHT22;18276;45.520;11.018;2023-07-08T11:17:55;39.00;27.60
31675;DHT22;18276;45.520;11.018;2023-07-08T11:21:08;38.40;28.20
31675;DHT22;18276;45.520;11.018;2023-07-08T11:25:44;37.60;29.30
31675;DHT22;18276;45.520;11.018;2023-07-08T11:28:15;37.20;30.00
31675;DHT22;18276;45.520;11.018;2023-07-08T11:30:44;37.10;30.50
31675;DHT22;18276;45.520;11.018;2023-07-08T11:33:13;36.80;30.20
31675;DHT22;18276;45.520;11.018;2023-07-08T11:35:42;36.50;31.00
31675;DHT22;18276;45.520;11.018;2023-07-08T11:38:10;36.50;31.10
31675;DHT22;18276;45.520;11.018;2023-07-08T11:40:56;36.20;30.50
31675;DHT22;18276;45.520;11.018;2023-07-08T11:43:25;36.10;30.20
31675;DHT22;18276;45.520;11.018;2023-07-08T11:45:54;35.80;29.80
31675;DHT22;18276;45.520;11.018;2023-07-08T11:48:31;35.60;29.80
31675;DHT22;18276;45.520;11.018;2023-07-08T11:50:59;35.40;30.00
31675;DHT22;18276;45.520;11.018;2023-07-08T11:53:32;35.20;30.60
31675;DHT22;18276;45.520;11.018;2023-07-08T11:56:20;35.20;31.20
31675;DHT22;18276;45.520;11.018;2023-07-08T12:02:01;35.70;31.20
31675;DHT22;18276;45.520;11.018;2023-07-08T12:04:28;35.90;31.50
31675;DHT22;18276;45.520;11.018;2023-07-08T12:07:05;35.80;31.10
31675;DHT22;18276;45.520;11.018;2023-07-08T12:09:44;35.50;31.30
31675;DHT22;18276;45.520;11.018;2023-07-08T12:12:27;35.30;31.80
31675;DHT22;18276;45.520;11.018;2023-07-08T12:15:04;35.30;32.40
31675;DHT22;18276;45.520;11.018;2023-07-08T12:17:31;35.20;32.00
31675;DHT22;18276;45.520;11.018;2023-07-08T12:19:58;34.90;31.40
31675;DHT22;18276;45.520;11.018;2023-07-08T12:22:29;34.70;31.00
31675;DHT22;18276;45.520;11.018;2023-07-08T12:24:56;34.50;31.20
31675;DHT22;18276;45.520;11.018;2023-07-08T12:27:25;34.50;32.00
31675;DHT22;18276;45.520;11.018;2023-07-08T12:29:52;34.50;32.20
31675;DHT22;18276;45.520;11.018;2023-07-08T12:32:19;34.50;31.50
31675;DHT22;18276;45.520;11.018;2023-07-08T12:34:49;34.30;31.50
31675;DHT22;18276;45.520;11.018;2023-07-08T12:37:16;34.20;32.00
31675;DHT22;18276;45.520;11.018;2023-07-08T12:39:43;34.30;32.50
31675;DHT22;18276;45.520;11.018;2023-07-08T12:42:10;34.70;32.80
31675;DHT22;18276;45.520;11.018;2023-07-08T12:44:38;34.60;32.50
31675;DHT22;18276;45.520;11.018;2023-07-08T12:47:08;34.50;32.80
31675;DHT22;18276;45.520;11.018;2023-07-08T12:49:39;34.40;33.60
31675;DHT22;18276;45.520;11.018;2023-07-08T12:52:06;34.30;33.90
31675;DHT22;18276;45.520;11.018;2023-07-08T12:54:34;34.30;33.90
31675;DHT22;18276;45.520;11.018;2023-07-08T12:57:01;34.30;33.50
31675;DHT22;18276;45.520;11.018;2023-07-08T12:59:29;34.10;33.30
31675;DHT22;18276;45.520;11.018;2023-07-08T13:01:56;34.00;33.60
31675;DHT22;18276;45.520;11.018;2023-07-08T13:04:23;34.10;33.60
31675;DHT22;18276;45.520;11.018;2023-07-08T13:06:50;34.30;33.60
31675;DHT22;18276;45.520;11.018;2023-07-08T13:12:04;34.30;32.60
31675;DHT22;18276;45.520;11.018;2023-07-08T13:14:32;34.10;33.20
31675;DHT22;18276;45.520;11.018;2023-07-08T13:16:59;34.10;33.40
31675;DHT22;18276;45.520;11.018;2023-07-08T13:19:26;34.00;33.80
31675;DHT22;18276;45.520;11.018;2023-07-08T13:21:54;34.00;34.10
31675;DHT22;18276;45.520;11.018;2023-07-08T13:24:21;33.80;34.30
31675;DHT22;18276;45.520;11.018;2023-07-08T13:26:48;33.50;34.90
31675;DHT22;18276;45.520;11.018;2023-07-08T13:29:16;33.30;35.90
31675;DHT22;18276;45.520;11.018;2023-07-08T13:31:46;33.20;36.10
31675;DHT22;18276;45.520;11.018;2023-07-08T13:34:18;33.20;36.10
31675;DHT22;18276;45.520;11.018;2023-07-08T13:36:47;33.10;36.00
31675;DHT22;18276;45.520;11.018;2023-07-08T13:39:36;33.10;36.40
31675;DHT22;18276;45.520;11.018;2023-07-08T13:42:03;33.00;36.60
31675;DHT22;18276;45.520;11.018;2023-07-08T13:44:32;33.00;37.10
31675;DHT22;18276;45.520;11.018;2023-07-08T13:47:01;33.00;36.90
31675;DHT22;18276;45.520;11.018;2023-07-08T13:49:30;32.80;36.10
31675;DHT22;18276;45.520;11.018;2023-07-08T13:57:16;32.50;35.70
31675;DHT22;18276;45.520;11.018;2023-07-08T13:59:43;32.40;36.70
31675;DHT22;18276;45.520;11.018;2023-07-08T14:02:21;32.20;36.90
31675;DHT22;18276;45.520;11.018;2023-07-08T14:04:50;32.30;37.10
31675;DHT22;18276;45.520;11.018;2023-07-08T14:07:18;32.40;37.40
31675;DHT22;18276;45.520;11.018;2023-07-08T14:09:46;32.50;37.30
31675;DHT22;18276;45.520;11.018;2023-07-08T14:12:13;32.60;36.80
31675;DHT22;18276;45.520;11.018;2023-07-08T14:14:40;32.60;36.90
31675;DHT22;18276;45.520;11.018;2023-07-08T14:17:11;32.70;37.00
31675;DHT22;18276;45.520;11.018;2023-07-08T14:19:38;32.80;36.60
31675;DHT22;18276;45.520;11.018;2023-07-08T14:24:38;32.70;37.00
31675;DHT22;18276;45.520;11.018;2023-07-08T14:27:06;32.60;36.60
31675;DHT22;18276;45.520;11.018;2023-07-08T14:29:36;32.40;36.40
31675;DHT22;18276;45.520;11.018;2023-07-08T14:32:03;32.30;37.10
31675;DHT22;18276;45.520;11.018;2023-07-08T14:34:30;32.20;37.00
31675;DHT22;18276;45.520;11.018;2023-07-08T14:36:59;32.20;37.10
31675;DHT22;18276;45.520;11.018;2023-07-08T14:39:28;32.10;37.40
31675;DHT22;18276;45.520;11.018;2023-07-08T14:41:55;32.00;37.60
31675;DHT22;18276;45.520;11.018;2023-07-08T14:46:48;32.10;38.30
31675;DHT22;18276;45.520;11.018;2023-07-08T14:49:18;32.10;38.50
31675;DHT22;18276;45.520;11.018;2023-07-08T14:51:45;31.90;37.90
31675;DHT22;18276;45.520;11.018;2023-07-08T14:54:12;31.80;38.40
31675;DHT22;18276;45.520;11.018;2023-07-08T14:56:39;31.80;39.30
31675;DHT22;18276;45.520;11.018;2023-07-08T14:59:07;31.80;38.70
31675;DHT22;18276;45.520;11.018;2023-07-08T15:01:37;31.80;39.40
31675;DHT22;18276;45.520;11.018;2023-07-08T15:04:11;31.90;39.30
31675;DHT22;18276;45.520;11.018;2023-07-08T15:06:38;31.90;39.50
31675;DHT22;18276;45.520;11.018;2023-07-08T15:09:05;31.90;39.40
31675;DHT22;18276;45.520;11.018;2023-07-08T15:11:32;31.90;38.70
31675;DHT22;18276;45.520;11.018;2023-07-08T15:13:59;31.90;38.60
31675;DHT22;18276;45.520;11.018;2023-07-08T15:16:27;31.90;38.90
31675;DHT22;18276;45.520;11.018;2023-07-08T15:18:54;31.80;39.00
31675;DHT22;18276;45.520;11.018;2023-07-08T15:21:21;31.80;39.40
31675;DHT22;18276;45.520;11.018;2023-07-08T15:23:48;31.80;39.60
31675;DHT22;18276;45.520;11.018;2023-07-08T15:26:15;31.90;39.60
31675;DHT22;18276;45.520;11.018;2023-07-08T15:28:43;32.00;39.20
31675;DHT22;18276;45.520;11.018;2023-07-08T15:31:17;32.10;39.10
31675;DHT22;18276;45.520;11.018;2023-07-08T15:33:45;32.10;39.10
31675;DHT22;18276;45.520;11.018;2023-07-08T15:36:12;32.20;39.50
31675;DHT22;18276;45.520;11.018;2023-07-08T15:38:39;32.30;38.90
31675;DHT22;18276;45.520;11.018;2023-07-08T15:41:12;32.30;38.70
31675;DHT22;18276;45.520;11.018;2023-07-08T15:43:42;32.20;37.40
31675;DHT22;18276;45.520;11.018;2023-07-08T15:46:09;32.10;37.80
31675;DHT22;18276;45.520;11.018;2023-07-08T15:48:36;32.00;37.70
31675;DHT22;18276;45.520;11.018;2023-07-08T15:51:03;31.90;37.60
31675;DHT22;18276;45.520;11.018;2023-07-08T15:53:30;31.90;37.90
31675;DHT22;18276;45.520;11.018;2023-07-08T15:55:57;31.90;38.20
31675;DHT22;18276;45.520;11.018;2023-07-08T15:58:28;31.90;38.30
31675;DHT22;18276;45.520;11.018;2023-07-08T16:00:56;31.90;38.10
31675;DHT22;18276;45.520;11.018;2023-07-08T16:03:24;31.90;38.40
31675;DHT22;18276;45.520;11.018;2023-07-08T16:05:52;31.80;38.60
31675;DHT22;18276;45.520;11.018;2023-07-08T16:08:19;31.70;38.40
31675;DHT22;18276;45.520;11.018;2023-07-08T16:11:05;31.60;36.50
31675;DHT22;18276;45.520;11.018;2023-07-08T16:13:35;31.50;37.80
31675;DHT22;18276;45.520;11.018;2023-07-08T16:16:04;31.40;37.50
31675;DHT22;18276;45.520;11.018;2023-07-08T16:18:31;31.50;37.80
31675;DHT22;18276;45.520;11.018;2023-07-08T16:20:58;31.60;38.00
31675;DHT22;18276;45.520;11.018;2023-07-08T16:23:25;31.70;38.20
31675;DHT22;18276;45.520;11.018;2023-07-08T16:25:52;31.70;38.60
31675;DHT22;18276;45.520;11.018;2023-07-08T16:28:39;31.70;38.90